createdAt,value
2019-01-05T00:00:55.788Z,10.20
2019-01-05T00:03:38.865Z,10.28
2019-01-05T00:06:18.643Z,10.03
2019-01-05T00:08:58.395Z,9.90
2019-01-05T00:11:45.482Z,10.13
2019-01-05T00:14:28.305Z,10.05
2019-01-05T00:17:07.882Z,10.58
2019-01-05T00:19:39.718Z,9.85
2019-01-05T00:22:26.804Z,9.53
2019-01-05T00:25:13.954Z,9.38
2019-01-05T00:28:02.692Z,9.78
2019-01-05T00:30:39.398Z,8.70
2019-01-05T00:33:28.416Z,8.13
2019-01-05T00:35:59.247Z,8.50
2019-01-05T00:38:36.171Z,7.85
2019-01-05T00:41:23.615Z,8.05
2019-01-05T00:44:00.149Z,7.17
2019-01-05T00:46:31.184Z,7.85
2019-01-05T00:49:09.527Z,8.13
2019-01-05T00:51:40.865Z,7.10
2019-01-05T00:54:26.946Z,7.10
2019-01-05T00:57:13.908Z,7.55
2019-01-05T00:59:44.654Z,7.05
2019-01-05T01:02:30.757Z,7.70
2019-01-05T01:05:13.712Z,7.42
2019-01-05T01:08:00.864Z,7.37
2019-01-05T01:10:31.677Z,8.25
2019-01-05T01:13:18.539Z,8.25
2019-01-05T01:15:51.996Z,8.95
2019-01-05T01:18:22.737Z,9.43
2019-01-05T01:21:11.510Z,9.40
2019-01-05T01:26:53.681Z,9.10
2019-01-05T01:29:40.488Z,9.80
2019-01-05T01:32:14.002Z,8.93
2019-01-05T01:34:47.877Z,10.30
2019-01-05T01:37:54.304Z,10.75
2019-01-05T01:40:25.217Z,9.40
2019-01-05T01:43:01.962Z,9.95
2019-01-05T01:45:32.768Z,8.95
2019-01-05T01:48:06.565Z,9.05
2019-01-05T01:50:54.148Z,9.15
2019-01-05T01:53:30.924Z,8.48
2019-01-05T01:56:11.130Z,8.35
2019-01-05T01:58:58.493Z,9.00
2019-01-05T02:01:31.887Z,8.23
2019-01-05T02:04:20.745Z,8.38
2019-01-05T02:07:07.699Z,7.53
2019-01-05T02:09:54.738Z,7.78
2019-01-05T02:12:41.062Z,7.25
2019-01-05T02:15:17.461Z,6.60
2019-01-05T02:17:48.985Z,7.08
2019-01-05T02:20:36.293Z,6.72
2019-01-05T02:23:35.961Z,6.05
2019-01-05T02:26:44.630Z,6.05
2019-01-05T02:30:06.377Z,4.75
2019-01-05T02:33:07.369Z,4.95
2019-01-05T02:36:22.005Z,4.85
2019-01-05T02:39:17.075Z,4.08
2019-01-05T02:42:38.990Z,3.90
2019-01-05T02:46:04.750Z,3.85
2019-01-05T02:49:03.694Z,3.52
2019-01-05T02:51:59.385Z,3.92
2019-01-05T02:58:33.337Z,3.72
2019-01-05T03:01:59.872Z,3.50
2019-01-05T03:05:08.751Z,3.30
2019-01-05T03:08:10.258Z,3.40
2019-01-05T03:11:11.461Z,2.95
2019-01-05T03:14:31.230Z,3.12
2019-01-05T03:17:49.322Z,3.25
2019-01-05T03:21:00.290Z,3.62
2019-01-05T03:24:17.819Z,3.70
2019-01-05T03:27:14.021Z,3.75
2019-01-05T03:30:28.126Z,3.92
2019-01-05T03:33:27.334Z,3.60
2019-01-05T03:36:53.542Z,3.50
2019-01-05T03:39:50.052Z,4.30
2019-01-05T03:43:03.432Z,4.40
2019-01-05T03:46:19.369Z,4.35
2019-01-05T03:50:01.892Z,3.62
2019-01-05T03:53:04.698Z,3.55
2019-01-05T03:56:17.967Z,3.17
2019-01-05T03:59:10.327Z,3.12
2019-01-05T04:02:06.184Z,2.75
2019-01-05T04:05:16.662Z,2.75
2019-01-05T04:08:44.871Z,2.87
2019-01-05T04:12:16.487Z,2.85
2019-01-05T04:15:44.408Z,3.00
2019-01-05T04:18:25.524Z,2.67
2019-01-05T04:21:21.749Z,3.17
2019-01-05T04:24:19.715Z,2.95
2019-01-05T04:27:36.477Z,3.37
2019-01-05T04:31:07.227Z,3.25
2019-01-05T04:34:15.390Z,2.60
2019-01-05T04:36:56.028Z,2.90
2019-01-05T04:39:52.320Z,2.87
2019-01-05T04:42:51.142Z,2.85
2019-01-05T04:45:45.253Z,2.95
2019-01-05T04:48:35.689Z,2.58
2019-01-05T04:51:28.419Z,3.33
2019-01-05T04:54:36.895Z,2.90
2019-01-05T04:57:54.017Z,3.33
2019-01-05T05:00:35.486Z,2.95
2019-01-05T05:03:39.606Z,3.20
2019-01-05T05:06:56.515Z,3.08
2019-01-05T05:10:11.023Z,3.17
2019-01-05T05:13:26.405Z,3.45
2019-01-05T05:17:02.310Z,3.05
2019-01-05T05:19:58.368Z,3.35
2019-01-05T05:23:08.129Z,3.02
2019-01-05T05:26:52.433Z,3.20
2019-01-05T05:30:14.457Z,3.90
2019-01-05T05:36:14.968Z,3.30
2019-01-05T05:39:35.955Z,2.87
2019-01-05T05:42:40.730Z,2.90
2019-01-05T05:45:42.867Z,3.45
2019-01-05T05:48:45.278Z,2.92
2019-01-05T05:51:55.327Z,2.80
2019-01-05T05:55:02.785Z,2.90
2019-01-05T05:58:23.745Z,2.85
2019-01-05T06:01:39.900Z,3.00
2019-01-05T06:04:48.727Z,2.80
2019-01-05T06:08:06.304Z,2.33
2019-01-05T06:11:31.082Z,3.00
2019-01-05T06:14:41.815Z,3.02
2019-01-05T06:17:39.494Z,2.95
2019-01-05T06:21:06.455Z,3.27
2019-01-05T06:24:32.973Z,3.75
2019-01-05T06:27:25.305Z,3.10
2019-01-05T06:30:21.508Z,3.45
2019-01-05T06:33:29.364Z,3.60
2019-01-05T06:36:38.663Z,3.37
2019-01-05T06:39:30.531Z,3.72
2019-01-05T06:42:43.792Z,4.17
2019-01-05T06:45:43.085Z,4.10
2019-01-05T06:48:33.786Z,4.65
2019-01-05T06:51:17.997Z,4.17
2019-01-05T06:54:38.625Z,4.25
2019-01-05T06:57:52.775Z,4.53
2019-01-05T07:01:18.645Z,5.17
2019-01-05T07:04:18.184Z,4.37
2019-01-05T07:07:24.568Z,4.95
2019-01-05T07:10:17.127Z,4.40
2019-01-05T07:13:18.511Z,4.60
2019-01-05T07:16:16.098Z,5.28
2019-01-05T07:19:37.406Z,6.25
2019-01-05T07:22:40.297Z,5.83
2019-01-05T07:26:17.903Z,5.78
2019-01-05T07:29:43.705Z,5.25
2019-01-05T07:32:46.020Z,6.15
2019-01-05T07:36:18.671Z,6.50
2019-01-05T07:39:19.752Z,5.87
2019-01-05T07:42:45.945Z,6.17
2019-01-05T07:46:12.921Z,6.42
2019-01-05T07:49:41.474Z,6.72
2019-01-05T07:53:20.057Z,6.47
2019-01-05T07:56:25.580Z,6.50
2019-01-05T07:59:34.893Z,6.15
2019-01-05T08:02:33.534Z,6.62
2019-01-05T08:05:41.829Z,6.42
2019-01-05T08:09:00.788Z,6.42
2019-01-05T08:11:57.964Z,6.30
2019-01-05T08:15:14.267Z,5.65
2019-01-05T08:18:31.261Z,6.10
2019-01-05T08:21:42.192Z,6.62
2019-01-05T08:24:56.785Z,6.55
2019-01-05T08:28:10.882Z,7.15
2019-01-05T08:31:31.585Z,7.55
2019-01-05T08:34:35.258Z,11.03
2019-01-05T08:37:56.101Z,6.33
2019-01-05T08:41:09.120Z,7.35
2019-01-05T08:44:25.933Z,5.53
2019-01-05T08:47:20.310Z,6.37
2019-01-05T08:50:37.997Z,6.90
2019-01-05T08:53:54.463Z,6.78
2019-01-05T08:57:06.752Z,5.78
2019-01-05T09:00:30.351Z,6.67
2019-01-05T09:03:47.966Z,6.28
2019-01-05T09:06:44.765Z,6.47
2019-01-05T09:10:10.899Z,6.20
2019-01-05T09:13:33.670Z,6.20
2019-01-05T09:16:38.061Z,6.17
2019-01-05T09:19:53.325Z,7.05
2019-01-05T09:22:40.808Z,5.83
2019-01-05T09:25:50.922Z,7.05
2019-01-05T09:29:02.430Z,6.10
2019-01-05T09:32:10.911Z,5.67
2019-01-05T09:35:12.281Z,4.62
2019-01-05T09:38:25.108Z,3.77
2019-01-05T09:41:46.028Z,3.50
2019-01-05T09:45:11.068Z,4.30
2019-01-05T09:48:40.572Z,3.83
2019-01-05T09:51:27.656Z,4.12
2019-01-05T09:55:00.640Z,4.25
2019-01-05T09:58:11.144Z,3.35
2019-01-05T10:01:46.706Z,3.90
2019-01-05T10:04:55.292Z,3.92
2019-01-05T10:07:46.896Z,3.30
2019-01-05T10:10:52.307Z,3.20
2019-01-05T10:14:09.124Z,3.85
2019-01-05T10:17:42.486Z,5.70
2019-01-05T10:20:31.881Z,5.10
2019-01-05T10:23:25.246Z,4.65
2019-01-05T10:26:43.183Z,4.95
2019-01-05T10:29:42.964Z,4.37
2019-01-05T10:35:57.969Z,3.10
2019-01-05T10:39:04.952Z,2.83
2019-01-05T10:42:17.666Z,3.00
2019-01-05T10:45:23.610Z,2.95
2019-01-05T10:48:40.032Z,3.17
2019-01-05T10:51:52.490Z,2.65
2019-01-05T10:54:51.842Z,2.90
2019-01-05T10:57:38.934Z,2.33
2019-01-05T11:00:45.442Z,3.25
2019-01-05T11:03:43.329Z,3.08
2019-01-05T11:06:54.632Z,2.80
2019-01-05T11:10:26.126Z,3.65
2019-01-05T11:13:19.855Z,3.08
2019-01-05T11:16:16.447Z,2.87
2019-01-05T11:19:04.184Z,2.60
2019-01-05T11:22:35.395Z,3.72
2019-01-05T11:25:44.028Z,2.60
2019-01-05T11:29:12.843Z,3.20
2019-01-05T11:32:25.893Z,2.42
2019-01-05T11:35:48.648Z,2.70
2019-01-05T11:38:42.018Z,3.02
2019-01-05T11:41:53.602Z,2.72
2019-01-05T11:45:13.987Z,3.22
2019-01-05T11:48:10.120Z,3.00
2019-01-05T11:51:30.434Z,3.92
2019-01-05T11:54:20.620Z,3.47
2019-01-05T11:57:26.663Z,2.95
2019-01-05T12:00:59.436Z,3.12
2019-01-05T12:04:14.104Z,2.67
2019-01-05T12:07:14.968Z,3.30
2019-01-05T12:10:06.734Z,2.80
2019-01-05T12:13:20.611Z,2.75
2019-01-05T12:16:30.981Z,2.55
2019-01-05T12:20:01.029Z,3.00
2019-01-05T12:23:09.338Z,2.70
2019-01-05T12:26:37.132Z,2.80
2019-01-05T12:29:41.176Z,3.05
2019-01-05T12:33:14.096Z,3.50
2019-01-05T12:36:21.671Z,3.08
2019-01-05T12:39:25.521Z,3.00
2019-01-05T12:42:22.327Z,3.20
2019-01-05T12:45:20.362Z,3.12
2019-01-05T12:48:15.670Z,3.47
2019-01-05T12:51:15.265Z,3.55
2019-01-05T12:54:19.181Z,3.00
2019-01-05T12:57:26.399Z,3.22
2019-01-05T13:00:39.424Z,3.22
2019-01-05T13:03:43.816Z,3.60
2019-01-05T13:06:53.431Z,3.08
2019-01-05T13:10:38.621Z,3.70
2019-01-05T13:13:57.854Z,3.67
2019-01-05T13:17:25.103Z,3.90
2019-01-05T13:20:49.030Z,3.65
2019-01-05T13:23:50.215Z,3.98
2019-01-05T13:26:47.865Z,3.80
2019-01-05T13:29:48.610Z,4.50
2019-01-05T13:32:52.629Z,4.53
2019-01-05T13:35:57.079Z,4.75
2019-01-05T13:38:46.481Z,4.45
2019-01-05T13:41:57.629Z,4.50
2019-01-05T13:45:03.541Z,5.47
2019-01-05T13:48:28.888Z,4.60
2019-01-05T13:51:24.611Z,3.77
2019-01-05T13:53:55.553Z,4.42
2019-01-05T13:56:29.677Z,3.95
2019-01-05T13:59:03.445Z,4.67
2019-01-05T14:01:43.373Z,4.37
2019-01-05T14:04:36.228Z,4.05
2019-01-05T14:07:09.975Z,4.85
2019-01-05T14:09:57.132Z,3.95
2019-01-05T14:12:27.901Z,3.87
2019-01-05T14:15:07.432Z,3.80
2019-01-05T14:17:40.877Z,4.40
2019-01-05T14:20:28.178Z,4.15
2019-01-05T14:23:11.686Z,4.92
2019-01-05T14:26:00.284Z,4.25
2019-01-05T14:28:33.771Z,4.53
2019-01-05T14:31:10.267Z,4.62
2019-01-05T14:33:41.004Z,4.33
2019-01-05T14:36:15.048Z,3.60
2019-01-05T14:38:45.879Z,4.42
2019-01-05T14:41:16.890Z,3.80
2019-01-05T14:43:47.615Z,3.72
2019-01-05T14:46:24.548Z,4.28
2019-01-05T14:48:58.230Z,3.75
2019-01-05T14:51:29.000Z,3.37
2019-01-05T14:54:14.926Z,3.40
2019-01-05T14:57:02.105Z,4.45
2019-01-05T14:59:35.518Z,4.47
2019-01-05T15:02:12.267Z,4.08
2019-01-05T15:04:59.172Z,4.37
2019-01-05T15:07:45.210Z,4.10
2019-01-05T15:10:32.366Z,4.95
2019-01-05T15:13:11.999Z,4.28
2019-01-05T15:15:54.696Z,3.67
2019-01-05T15:18:34.329Z,4.53
2019-01-05T15:21:05.111Z,3.55
2019-01-05T15:23:52.145Z,3.87
2019-01-05T15:26:39.199Z,3.55
2019-01-05T15:29:10.034Z,3.05
2019-01-05T15:31:57.374Z,3.30
2019-01-05T15:34:30.870Z,2.58
2019-01-05T15:37:17.588Z,2.70
2019-01-05T15:39:48.351Z,2.58
2019-01-05T15:42:19.117Z,3.33
2019-01-05T15:45:08.194Z,2.77
2019-01-05T15:47:41.686Z,2.83
2019-01-05T15:50:24.533Z,2.80
2019-01-05T15:53:07.267Z,2.60
2019-01-05T15:56:02.353Z,2.85
2019-01-05T15:59:04.783Z,2.40
2019-01-05T16:01:38.619Z,2.62
2019-01-05T16:04:27.398Z,2.95
2019-01-05T16:07:04.017Z,2.62
2019-01-05T16:09:34.839Z,3.12
2019-01-05T16:12:14.376Z,3.17
2019-01-05T16:14:45.215Z,2.50
2019-01-05T16:17:25.029Z,2.42
2019-01-05T16:19:58.558Z,2.85
2019-01-05T16:22:44.743Z,3.08
2019-01-05T16:25:15.491Z,2.98
2019-01-05T16:27:46.223Z,3.25
2019-01-05T16:30:17.083Z,3.47
2019-01-05T16:32:54.706Z,3.05
2019-01-05T16:35:25.754Z,3.62
2019-01-05T16:38:12.716Z,3.47
2019-01-05T16:40:59.847Z,3.15
2019-01-05T16:43:30.616Z,3.02
2019-01-05T16:46:07.103Z,3.87
2019-01-05T16:48:54.272Z,3.17
2019-01-05T16:51:41.112Z,3.60
2019-01-05T16:54:14.789Z,4.37
2019-01-05T16:56:45.511Z,4.40
2019-01-05T16:59:19.022Z,3.60
2019-01-05T17:01:49.829Z,4.00
2019-01-05T17:04:29.684Z,4.85
2019-01-05T17:07:12.333Z,4.15
2019-01-05T17:10:05.237Z,4.25
2019-01-05T17:12:52.374Z,3.47
2019-01-05T17:15:23.130Z,4.40
2019-01-05T17:18:03.014Z,4.58
2019-01-05T17:20:49.005Z,4.33
2019-01-05T17:23:31.885Z,3.90
2019-01-05T17:26:19.053Z,5.45
2019-01-05T17:28:49.816Z,4.75
2019-01-05T17:31:35.795Z,3.45
2019-01-05T17:34:06.564Z,4.00
2019-01-05T17:36:53.637Z,4.22
2019-01-05T17:39:36.718Z,3.83
2019-01-05T17:42:24.036Z,4.58
2019-01-05T17:45:07.076Z,3.80
2019-01-05T17:47:56.223Z,3.37
2019-01-05T17:50:43.613Z,4.30
2019-01-05T17:53:32.437Z,7.53
2019-01-05T17:56:19.640Z,4.00
2019-01-05T17:58:50.408Z,3.90
2019-01-05T18:01:39.519Z,3.85
2019-01-05T18:04:25.815Z,3.75
2019-01-05T18:07:05.399Z,4.12
2019-01-05T18:09:41.981Z,4.60
2019-01-05T18:12:29.256Z,4.25
2019-01-05T18:15:18.648Z,4.25
2019-01-05T18:18:05.981Z,3.20
2019-01-05T18:20:39.978Z,3.40
2019-01-05T18:23:33.116Z,3.65
2019-01-05T18:26:20.290Z,3.40
2019-01-05T18:28:56.609Z,3.27
2019-01-05T18:31:27.537Z,3.37
2019-01-05T18:34:04.533Z,3.35
2019-01-05T18:36:36.076Z,3.58
2019-01-05T18:39:08.938Z,3.67
2019-01-05T18:41:39.862Z,2.92
2019-01-05T18:44:20.047Z,2.70
2019-01-05T18:46:50.984Z,1.90
2019-01-05T18:49:35.224Z,1.50
2019-01-05T18:52:25.021Z,1.20
2019-01-05T18:55:07.733Z,0.90
2019-01-05T18:57:41.775Z,1.20
2019-01-05T19:00:13.079Z,0.90
2019-01-05T19:02:46.683Z,1.00
2019-01-05T19:05:34.339Z,0.80
2019-01-05T19:08:20.517Z,0.70
2019-01-05T19:10:57.365Z,1.00
2019-01-05T19:13:28.356Z,0.90
2019-01-05T19:16:11.285Z,0.82
2019-01-05T19:18:42.020Z,1.00
2019-01-05T19:21:15.417Z,1.55
2019-01-05T19:24:17.620Z,1.00
2019-01-05T19:26:48.622Z,1.15
2019-01-05T19:29:31.363Z,1.00
2019-01-05T19:32:02.349Z,1.10
2019-01-05T19:34:49.201Z,1.07
2019-01-05T19:37:25.712Z,1.47
2019-01-05T19:40:11.800Z,0.80
2019-01-05T19:42:51.968Z,1.37
2019-01-05T19:45:36.064Z,0.93
2019-01-05T19:48:26.490Z,1.30
2019-01-05T19:50:57.664Z,1.40
2019-01-05T19:53:37.183Z,1.20
2019-01-05T19:56:10.741Z,1.00
2019-01-05T19:58:56.684Z,1.72
2019-01-05T20:01:30.916Z,1.20
2019-01-05T20:04:01.715Z,1.80
2019-01-05T20:06:32.873Z,1.20
2019-01-05T20:09:04.031Z,1.30
2019-01-05T20:11:51.127Z,1.20
2019-01-05T20:14:38.451Z,1.50
2019-01-05T20:17:18.337Z,1.50
2019-01-05T20:20:04.324Z,1.35
2019-01-05T20:22:35.241Z,1.75
2019-01-05T20:25:09.648Z,1.82
2019-01-05T20:28:18.914Z,1.55
2019-01-05T20:31:05.820Z,1.85
2019-01-05T20:33:45.684Z,2.80
2019-01-05T20:36:16.442Z,1.80
2019-01-05T20:38:50.118Z,2.52
2019-01-05T20:41:35.834Z,1.90
2019-01-05T20:44:06.577Z,2.10
2019-01-05T20:46:46.180Z,2.27
2019-01-05T20:49:32.004Z,2.20
2019-01-05T20:52:19.050Z,2.42
2019-01-05T20:54:53.114Z,2.40
2019-01-05T20:57:33.513Z,2.60
2019-01-05T21:00:11.227Z,2.47
2019-01-05T21:02:44.757Z,2.50
2019-01-05T21:05:28.266Z,2.47
2019-01-05T21:08:15.645Z,2.20
2019-01-05T21:10:46.383Z,1.95
2019-01-05T21:13:33.342Z,1.90
2019-01-05T21:16:06.767Z,2.00
2019-01-05T21:18:46.406Z,2.50
2019-01-05T21:21:19.868Z,1.82
2019-01-05T21:24:06.995Z,2.25
2019-01-05T21:26:43.549Z,1.62
2019-01-05T21:29:30.874Z,1.95
2019-01-05T21:32:10.796Z,1.70
2019-01-05T21:34:57.829Z,1.98
2019-01-05T21:37:48.043Z,1.77
2019-01-05T21:40:35.251Z,1.87
2019-01-05T21:43:22.138Z,1.60
2019-01-05T21:46:11.147Z,2.00
2019-01-05T21:48:44.616Z,1.85
2019-01-05T21:51:33.392Z,1.65
2019-01-05T21:54:20.535Z,1.75
2019-01-05T21:56:56.908Z,1.90
2019-01-05T21:59:33.711Z,1.90
2019-01-05T22:02:20.116Z,1.77
2019-01-05T22:04:50.854Z,1.62
2019-01-05T22:07:27.300Z,1.67
2019-01-05T22:09:58.044Z,2.20
2019-01-05T22:12:44.096Z,1.85
2019-01-05T22:15:30.457Z,1.60
2019-01-05T22:18:07.449Z,2.35
2019-01-05T22:20:41.464Z,1.90
2019-01-05T22:23:15.572Z,12.75
2019-01-05T22:26:02.994Z,3.05
2019-01-05T22:28:43.217Z,2.20
2019-01-05T22:31:20.124Z,2.22
2019-01-05T22:33:51.118Z,3.30
2019-01-05T22:36:21.953Z,3.70
2019-01-05T22:39:07.804Z,3.67
2019-01-05T22:41:50.817Z,2.85
2019-01-05T22:44:31.377Z,3.02
2019-01-05T22:47:10.900Z,2.65
2019-01-05T22:49:46.068Z,2.62
2019-01-05T22:52:23.019Z,1.82
2019-01-05T22:54:56.327Z,2.40
2019-01-05T22:57:33.718Z,1.72
2019-01-05T23:00:23.167Z,2.12
2019-01-05T23:02:54.226Z,3.72
2019-01-05T23:05:37.021Z,2.15
2019-01-05T23:08:13.963Z,2.27
2019-01-05T23:10:44.718Z,1.80
2019-01-05T23:13:15.450Z,1.70
2019-01-05T23:15:55.269Z,1.80
2019-01-05T23:18:28.957Z,1.77
2019-01-05T23:21:14.797Z,1.80
2019-01-05T23:23:45.618Z,1.95
2019-01-05T23:26:32.532Z,2.10
2019-01-05T23:29:14.860Z,1.57
2019-01-05T23:31:57.897Z,1.67
2019-01-05T23:34:34.503Z,1.90
2019-01-05T23:37:05.246Z,2.33
2019-01-05T23:39:45.254Z,1.85
2019-01-05T23:42:31.115Z,1.82
2019-01-05T23:45:01.890Z,1.80
2019-01-05T23:47:38.663Z,1.82
2019-01-05T23:50:09.879Z,2.00
2019-01-05T23:52:57.193Z,2.27
2019-01-05T23:55:42.911Z,2.10
2019-01-05T23:58:25.005Z,2.12
